sensor_id;sensor_type;location;lat;lon;timestamp;P1;durP1;ratioP1;P2;durP2;ratioP2
10387;SDS011;5240;51.128;4.566;2022-12-07T00:01:42;18.10;;;10.95;;
10387;SDS011;5240;51.128;4.566;2022-12-07T00:04:11;16.73;;;11.32;;
10387;SDS011;5240;51.128;4.566;2022-12-07T00:06:39;15.60;;;11.75;;
10387;SDS011;5240;51.128;4.566;2022-12-07T00:09:09;15.60;;;11.82;;
10387;SDS011;5240;51.128;4.566;2022-12-07T00:11:37;16.35;;;11.07;;
10387;SDS011;5240;51.128;4.566;2022-12-07T00:14:05;17.45;;;11.93;;
10387;SDS011;5240;51.128;4.566;2022-12-07T00:16:34;15.18;;;11.60;;
10387;SDS011;5240;51.128;4.566;2022-12-07T00:19:02;16.75;;;11.95;;
10387;SDS011;5240;51.128;4.566;2022-12-07T00:21:30;15.52;;;11.55;;
10387;SDS011;5240;51.128;4.566;2022-12-07T00:23:59;17.35;;;12.32;;
10387;SDS011;5240;51.128;4.566;2022-12-07T00:26:27;15.70;;;11.40;;
10387;SDS011;5240;51.128;4.566;2022-12-07T00:28:56;18.52;;;12.55;;
10387;SDS011;5240;51.128;4.566;2022-12-07T00:31:24;17.08;;;12.05;;
10387;SDS011;5240;51.128;4.566;2022-12-07T00:33:54;16.83;;;11.10;;
10387;SDS011;5240;51.128;4.566;2022-12-07T00:36:22;17.38;;;11.98;;
10387;SDS011;5240;51.128;4.566;2022-12-07T00:38:49;15.52;;;12.45;;
10387;SDS011;5240;51.128;4.566;2022-12-07T00:41:17;17.55;;;12.00;;
10387;SDS011;5240;51.128;4.566;2022-12-07T00:43:46;17.80;;;13.02;;
10387;SDS011;5240;51.128;4.566;2022-12-07T00:46:15;15.23;;;12.43;;
10387;SDS011;5240;51.128;4.566;2022-12-07T00:48:43;15.85;;;13.05;;
10387;SDS011;5240;51.128;4.566;2022-12-07T00:51:12;17.30;;;14.05;;
10387;SDS011;5240;51.128;4.566;2022-12-07T00:53:40;18.75;;;12.88;;
10387;SDS011;5240;51.128;4.566;2022-12-07T00:56:08;16.40;;;12.45;;
10387;SDS011;5240;51.128;4.566;2022-12-07T00:58:37;19.90;;;13.80;;
10387;SDS011;5240;51.128;4.566;2022-12-07T01:01:05;14.80;;;11.63;;
10387;SDS011;5240;51.128;4.566;2022-12-07T01:03:33;17.08;;;13.52;;
10387;SDS011;5240;51.128;4.566;2022-12-07T01:06:00;34.67;;;22.95;;
10387;SDS011;5240;51.128;4.566;2022-12-07T01:08:30;18.10;;;12.85;;
10387;SDS011;5240;51.128;4.566;2022-12-07T01:10:58;16.30;;;13.15;;
10387;SDS011;5240;51.128;4.566;2022-12-07T01:13:25;21.33;;;13.65;;
10387;SDS011;5240;51.128;4.566;2022-12-07T01:15:55;18.73;;;13.68;;
10387;SDS011;5240;51.128;4.566;2022-12-07T01:18:23;18.63;;;12.25;;
10387;SDS011;5240;51.128;4.566;2022-12-07T01:20:56;20.00;;;13.65;;
10387;SDS011;5240;51.128;4.566;2022-12-07T01:23:24;17.20;;;14.05;;
10387;SDS011;5240;51.128;4.566;2022-12-07T01:25:55;17.50;;;14.55;;
10387;SDS011;5240;51.128;4.566;2022-12-07T01:28:22;17.98;;;13.52;;
10387;SDS011;5240;51.128;4.566;2022-12-07T01:30:56;17.88;;;14.30;;
10387;SDS011;5240;51.128;4.566;2022-12-07T01:33:26;18.40;;;14.27;;
10387;SDS011;5240;51.128;4.566;2022-12-07T01:35:53;20.10;;;14.63;;
10387;SDS011;5240;51.128;4.566;2022-12-07T01:38:20;19.50;;;14.48;;
10387;SDS011;5240;51.128;4.566;2022-12-07T01:40:54;19.17;;;13.98;;
10387;SDS011;5240;51.128;4.566;2022-12-07T01:43:22;19.25;;;14.68;;
10387;SDS011;5240;51.128;4.566;2022-12-07T01:45:51;18.35;;;15.07;;
10387;SDS011;5240;51.128;4.566;2022-12-07T01:48:19;18.42;;;14.38;;
10387;SDS011;5240;51.128;4.566;2022-12-07T01:50:51;18.95;;;14.85;;
10387;SDS011;5240;51.128;4.566;2022-12-07T01:53:21;23.38;;;14.98;;
10387;SDS011;5240;51.128;4.566;2022-12-07T01:55:51;19.55;;;14.93;;
10387;SDS011;5240;51.128;4.566;2022-12-07T01:58:20;19.52;;;14.07;;
10387;SDS011;5240;51.128;4.566;2022-12-07T02:00:48;19.42;;;14.20;;
10387;SDS011;5240;51.128;4.566;2022-12-07T02:03:16;20.35;;;15.27;;
10387;SDS011;5240;51.128;4.566;2022-12-07T02:05:46;19.15;;;14.27;;
10387;SDS011;5240;51.128;4.566;2022-12-07T02:08:14;21.75;;;14.77;;
10387;SDS011;5240;51.128;4.566;2022-12-07T02:10:42;19.02;;;14.63;;
10387;SDS011;5240;51.128;4.566;2022-12-07T02:13:09;20.00;;;14.88;;
10387;SDS011;5240;51.128;4.566;2022-12-07T02:15:47;18.55;;;14.73;;
10387;SDS011;5240;51.128;4.566;2022-12-07T02:18:29;17.92;;;14.73;;
10387;SDS011;5240;51.128;4.566;2022-12-07T02:21:05;20.58;;;14.48;;
10387;SDS011;5240;51.128;4.566;2022-12-07T02:23:39;15.98;;;14.07;;
10387;SDS011;5240;51.128;4.566;2022-12-07T02:26:26;17.00;;;14.95;;
10387;SDS011;5240;51.128;4.566;2022-12-07T02:29:19;18.02;;;15.40;;
10387;SDS011;5240;51.128;4.566;2022-12-07T02:31:51;24.30;;;15.70;;
10387;SDS011;5240;51.128;4.566;2022-12-07T02:34:26;19.73;;;15.00;;
10387;SDS011;5240;51.128;4.566;2022-12-07T02:37:01;20.05;;;14.82;;
10387;SDS011;5240;51.128;4.566;2022-12-07T02:39:37;17.20;;;14.63;;
10387;SDS011;5240;51.128;4.566;2022-12-07T02:42:10;20.13;;;15.55;;
10387;SDS011;5240;51.128;4.566;2022-12-07T02:44:45;18.30;;;15.00;;
10387;SDS011;5240;51.128;4.566;2022-12-07T02:47:14;21.85;;;16.60;;
10387;SDS011;5240;51.128;4.566;2022-12-07T02:49:43;21.42;;;15.43;;
10387;SDS011;5240;51.128;4.566;2022-12-07T02:52:11;18.85;;;15.63;;
10387;SDS011;5240;51.128;4.566;2022-12-07T02:54:38;21.20;;;15.60;;
10387;SDS011;5240;51.128;4.566;2022-12-07T02:57:08;16.95;;;15.15;;
10387;SDS011;5240;51.128;4.566;2022-12-07T02:59:46;19.67;;;14.80;;
10387;SDS011;5240;51.128;4.566;2022-12-07T03:02:28;20.77;;;14.88;;
10387;SDS011;5240;51.128;4.566;2022-12-07T03:05:06;20.15;;;14.82;;
10387;SDS011;5240;51.128;4.566;2022-12-07T03:07:43;20.48;;;15.25;;
10387;SDS011;5240;51.128;4.566;2022-12-07T03:10:20;16.75;;;14.65;;
10387;SDS011;5240;51.128;4.566;2022-12-07T03:12:53;16.42;;;13.27;;
10387;SDS011;5240;51.128;4.566;2022-12-07T03:15:31;19.92;;;14.25;;
10387;SDS011;5240;51.128;4.566;2022-12-07T03:18:00;18.00;;;14.13;;
10387;SDS011;5240;51.128;4.566;2022-12-07T03:20:30;17.77;;;14.40;;
10387;SDS011;5240;51.128;4.566;2022-12-07T03:23:00;20.95;;;15.07;;
10387;SDS011;5240;51.128;4.566;2022-12-07T03:25:31;16.52;;;13.80;;
10387;SDS011;5240;51.128;4.566;2022-12-07T03:28:01;19.08;;;13.73;;
10387;SDS011;5240;51.128;4.566;2022-12-07T03:30:32;16.35;;;13.73;;
10387;SDS011;5240;51.128;4.566;2022-12-07T03:33:06;17.65;;;14.50;;
10387;SDS011;5240;51.128;4.566;2022-12-07T03:35:37;16.58;;;14.05;;
10387;SDS011;5240;51.128;4.566;2022-12-07T03:38:11;15.13;;;12.60;;
10387;SDS011;5240;51.128;4.566;2022-12-07T03:40:44;16.35;;;13.55;;
10387;SDS011;5240;51.128;4.566;2022-12-07T03:43:16;15.80;;;12.48;;
10387;SDS011;5240;51.128;4.566;2022-12-07T03:45:48;18.30;;;12.70;;
10387;SDS011;5240;51.128;4.566;2022-12-07T03:48:28;16.83;;;12.68;;
10387;SDS011;5240;51.128;4.566;2022-12-07T03:51:01;18.25;;;13.15;;
10387;SDS011;5240;51.128;4.566;2022-12-07T03:53:36;16.58;;;11.93;;
10387;SDS011;5240;51.128;4.566;2022-12-07T03:56:10;18.17;;;13.10;;
10387;SDS011;5240;51.128;4.566;2022-12-07T03:58:39;19.20;;;12.80;;
10387;SDS011;5240;51.128;4.566;2022-12-07T04:01:08;20.65;;;12.52;;
10387;SDS011;5240;51.128;4.566;2022-12-07T04:03:35;18.15;;;13.02;;
10387;SDS011;5240;51.128;4.566;2022-12-07T04:06:02;15.82;;;12.43;;
10387;SDS011;5240;51.128;4.566;2022-12-07T04:08:30;17.90;;;12.57;;
10387;SDS011;5240;51.128;4.566;2022-12-07T04:10:57;16.27;;;11.98;;
10387;SDS011;5240;51.128;4.566;2022-12-07T04:13:24;18.30;;;12.82;;
10387;SDS011;5240;51.128;4.566;2022-12-07T04:15:51;15.52;;;12.93;;
10387;SDS011;5240;51.128;4.566;2022-12-07T04:18:19;21.23;;;13.05;;
10387;SDS011;5240;51.128;4.566;2022-12-07T04:20:46;17.58;;;12.60;;
10387;SDS011;5240;51.128;4.566;2022-12-07T04:23:13;19.85;;;13.10;;
10387;SDS011;5240;51.128;4.566;2022-12-07T04:25:41;18.17;;;12.48;;
10387;SDS011;5240;51.128;4.566;2022-12-07T04:28:08;18.92;;;12.27;;
10387;SDS011;5240;51.128;4.566;2022-12-07T04:30:35;17.17;;;12.40;;
10387;SDS011;5240;51.128;4.566;2022-12-07T04:33:02;22.30;;;12.32;;
10387;SDS011;5240;51.128;4.566;2022-12-07T04:35:30;15.60;;;11.88;;
10387;SDS011;5240;51.128;4.566;2022-12-07T04:37:57;15.52;;;11.98;;
10387;SDS011;5240;51.128;4.566;2022-12-07T04:40:24;15.77;;;11.63;;
10387;SDS011;5240;51.128;4.566;2022-12-07T04:42:51;15.35;;;12.02;;
10387;SDS011;5240;51.128;4.566;2022-12-07T04:45:18;16.80;;;12.10;;
10387;SDS011;5240;51.128;4.566;2022-12-07T04:47:45;17.95;;;12.02;;
10387;SDS011;5240;51.128;4.566;2022-12-07T04:50:12;19.27;;;12.23;;
10387;SDS011;5240;51.128;4.566;2022-12-07T04:52:40;16.83;;;12.32;;
10387;SDS011;5240;51.128;4.566;2022-12-07T04:55:08;17.08;;;11.98;;
10387;SDS011;5240;51.128;4.566;2022-12-07T04:57:35;16.45;;;12.52;;
10387;SDS011;5240;51.128;4.566;2022-12-07T05:00:02;17.20;;;12.23;;
10387;SDS011;5240;51.128;4.566;2022-12-07T05:02:29;16.75;;;12.13;;
10387;SDS011;5240;51.128;4.566;2022-12-07T05:04:57;18.02;;;11.27;;
10387;SDS011;5240;51.128;4.566;2022-12-07T05:07:24;15.05;;;11.60;;
10387;SDS011;5240;51.128;4.566;2022-12-07T05:09:52;16.45;;;11.82;;
10387;SDS011;5240;51.128;4.566;2022-12-07T05:12:19;16.98;;;14.00;;
10387;SDS011;5240;51.128;4.566;2022-12-07T05:14:46;19.17;;;12.05;;
10387;SDS011;5240;51.128;4.566;2022-12-07T05:17:13;15.52;;;12.05;;
10387;SDS011;5240;51.128;4.566;2022-12-07T05:19:40;14.95;;;11.55;;
10387;SDS011;5240;51.128;4.566;2022-12-07T05:22:07;21.73;;;12.48;;
10387;SDS011;5240;51.128;4.566;2022-12-07T05:24:34;18.10;;;12.88;;
10387;SDS011;5240;51.128;4.566;2022-12-07T05:27:03;18.20;;;12.82;;
10387;SDS011;5240;51.128;4.566;2022-12-07T05:29:30;16.67;;;11.05;;
10387;SDS011;5240;51.128;4.566;2022-12-07T05:31:57;13.65;;;11.25;;
10387;SDS011;5240;51.128;4.566;2022-12-07T05:34:24;14.50;;;11.48;;
10387;SDS011;5240;51.128;4.566;2022-12-07T05:36:51;15.43;;;11.40;;
10387;SDS011;5240;51.128;4.566;2022-12-07T05:39:18;17.90;;;12.18;;
10387;SDS011;5240;51.128;4.566;2022-12-07T05:41:45;16.77;;;11.70;;
10387;SDS011;5240;51.128;4.566;2022-12-07T05:44:31;15.57;;;10.63;;
10387;SDS011;5240;51.128;4.566;2022-12-07T05:46:58;17.30;;;11.18;;
10387;SDS011;5240;51.128;4.566;2022-12-07T05:49:25;16.30;;;11.18;;
10387;SDS011;5240;51.128;4.566;2022-12-07T05:51:52;16.95;;;11.65;;
10387;SDS011;5240;51.128;4.566;2022-12-07T05:54:19;19.60;;;12.10;;
10387;SDS011;5240;51.128;4.566;2022-12-07T05:56:46;15.13;;;11.23;;
10387;SDS011;5240;51.128;4.566;2022-12-07T05:59:13;17.17;;;11.50;;
10387;SDS011;5240;51.128;4.566;2022-12-07T06:01:49;19.08;;;12.25;;
10387;SDS011;5240;51.128;4.566;2022-12-07T06:04:17;16.05;;;11.25;;
10387;SDS011;5240;51.128;4.566;2022-12-07T06:06:44;18.17;;;11.75;;
10387;SDS011;5240;51.128;4.566;2022-12-07T06:09:13;21.33;;;12.73;;
10387;SDS011;5240;51.128;4.566;2022-12-07T06:11:40;18.48;;;12.02;;
10387;SDS011;5240;51.128;4.566;2022-12-07T06:14:24;15.25;;;12.32;;
10387;SDS011;5240;51.128;4.566;2022-12-07T06:16:53;16.02;;;11.23;;
10387;SDS011;5240;51.128;4.566;2022-12-07T06:19:20;17.95;;;12.18;;
10387;SDS011;5240;51.128;4.566;2022-12-07T06:21:47;17.10;;;12.68;;
10387;SDS011;5240;51.128;4.566;2022-12-07T06:24:14;16.25;;;12.15;;
10387;SDS011;5240;51.128;4.566;2022-12-07T06:26:42;18.75;;;12.57;;
10387;SDS011;5240;51.128;4.566;2022-12-07T06:29:10;16.35;;;13.20;;
10387;SDS011;5240;51.128;4.566;2022-12-07T06:31:37;17.23;;;12.57;;
10387;SDS011;5240;51.128;4.566;2022-12-07T06:34:07;16.15;;;11.73;;
10387;SDS011;5240;51.128;4.566;2022-12-07T06:36:36;18.58;;;12.70;;
10387;SDS011;5240;51.128;4.566;2022-12-07T06:39:04;20.17;;;12.73;;
10387;SDS011;5240;51.128;4.566;2022-12-07T06:41:34;17.38;;;12.55;;
10387;SDS011;5240;51.128;4.566;2022-12-07T06:44:01;17.67;;;11.68;;
10387;SDS011;5240;51.128;4.566;2022-12-07T06:46:28;15.88;;;11.48;;
10387;SDS011;5240;51.128;4.566;2022-12-07T06:48:55;20.05;;;12.10;;
10387;SDS011;5240;51.128;4.566;2022-12-07T06:51:24;15.85;;;11.07;;
10387;SDS011;5240;51.128;4.566;2022-12-07T06:53:51;18.20;;;10.38;;
10387;SDS011;5240;51.128;4.566;2022-12-07T06:56:18;15.65;;;10.20;;
10387;SDS011;5240;51.128;4.566;2022-12-07T06:58:45;16.48;;;10.25;;
10387;SDS011;5240;51.128;4.566;2022-12-07T07:01:12;14.43;;;10.02;;
10387;SDS011;5240;51.128;4.566;2022-12-07T07:03:41;17.15;;;10.05;;
10387;SDS011;5240;51.128;4.566;2022-12-07T07:06:09;16.67;;;9.95;;
10387;SDS011;5240;51.128;4.566;2022-12-07T07:08:39;16.23;;;10.27;;
10387;SDS011;5240;51.128;4.566;2022-12-07T07:11:06;17.27;;;10.88;;
10387;SDS011;5240;51.128;4.566;2022-12-07T07:13:35;15.32;;;10.73;;
10387;SDS011;5240;51.128;4.566;2022-12-07T07:16:02;18.73;;;10.93;;
10387;SDS011;5240;51.128;4.566;2022-12-07T07:18:29;16.88;;;10.52;;
10387;SDS011;5240;51.128;4.566;2022-12-07T07:20:56;17.38;;;10.90;;
10387;SDS011;5240;51.128;4.566;2022-12-07T07:23:24;18.15;;;12.23;;
10387;SDS011;5240;51.128;4.566;2022-12-07T07:25:53;16.38;;;10.63;;
10387;SDS011;5240;51.128;4.566;2022-12-07T07:28:38;13.70;;;10.90;;
10387;SDS011;5240;51.128;4.566;2022-12-07T07:31:05;14.00;;;10.93;;
10387;SDS011;5240;51.128;4.566;2022-12-07T07:33:36;14.68;;;9.90;;
10387;SDS011;5240;51.128;4.566;2022-12-07T07:36:03;17.00;;;10.57;;
10387;SDS011;5240;51.128;4.566;2022-12-07T07:38:31;16.55;;;10.13;;
10387;SDS011;5240;51.128;4.566;2022-12-07T07:40:59;16.35;;;9.52;;
10387;SDS011;5240;51.128;4.566;2022-12-07T07:43:26;16.55;;;9.38;;
10387;SDS011;5240;51.128;4.566;2022-12-07T07:45:53;13.93;;;10.00;;
10387;SDS011;5240;51.128;4.566;2022-12-07T07:48:20;16.45;;;8.93;;
10387;SDS011;5240;51.128;4.566;2022-12-07T07:50:50;15.82;;;10.13;;
10387;SDS011;5240;51.128;4.566;2022-12-07T07:53:17;14.13;;;8.88;;
10387;SDS011;5240;51.128;4.566;2022-12-07T07:55:49;18.58;;;9.82;;
10387;SDS011;5240;51.128;4.566;2022-12-07T07:58:19;21.23;;;9.73;;
10387;SDS011;5240;51.128;4.566;2022-12-07T08:00:47;19.98;;;10.02;;
10387;SDS011;5240;51.128;4.566;2022-12-07T08:03:14;14.27;;;10.32;;
10387;SDS011;5240;51.128;4.566;2022-12-07T08:05:41;15.20;;;10.25;;
10387;SDS011;5240;51.128;4.566;2022-12-07T08:08:08;17.25;;;10.52;;
10387;SDS011;5240;51.128;4.566;2022-12-07T08:10:35;19.65;;;10.45;;
10387;SDS011;5240;51.128;4.566;2022-12-07T08:13:03;18.05;;;10.95;;
10387;SDS011;5240;51.128;4.566;2022-12-07T08:15:41;17.80;;;10.60;;
10387;SDS011;5240;51.128;4.566;2022-12-07T08:18:09;15.15;;;10.52;;
10387;SDS011;5240;51.128;4.566;2022-12-07T08:20:37;17.38;;;9.73;;
10387;SDS011;5240;51.128;4.566;2022-12-07T08:23:06;14.73;;;10.02;;
10387;SDS011;5240;51.128;4.566;2022-12-07T08:25:35;14.35;;;10.10;;
10387;SDS011;5240;51.128;4.566;2022-12-07T08:28:02;17.33;;;10.60;;
10387;SDS011;5240;51.128;4.566;2022-12-07T08:30:31;13.98;;;10.88;;
10387;SDS011;5240;51.128;4.566;2022-12-07T08:33:01;13.80;;;10.50;;
10387;SDS011;5240;51.128;4.566;2022-12-07T08:35:28;14.77;;;10.15;;
10387;SDS011;5240;51.128;4.566;2022-12-07T08:37:56;14.38;;;9.75;;
10387;SDS011;5240;51.128;4.566;2022-12-07T08:40:23;13.82;;;10.45;;
10387;SDS011;5240;51.128;4.566;2022-12-07T08:42:51;17.75;;;10.00;;
10387;SDS011;5240;51.128;4.566;2022-12-07T08:45:18;17.40;;;10.57;;
10387;SDS011;5240;51.128;4.566;2022-12-07T08:47:47;14.73;;;9.23;;
10387;SDS011;5240;51.128;4.566;2022-12-07T08:50:20;18.17;;;9.13;;
10387;SDS011;5240;51.128;4.566;2022-12-07T08:52:48;14.40;;;8.15;;
10387;SDS011;5240;51.128;4.566;2022-12-07T08:55:21;11.07;;;8.05;;
10387;SDS011;5240;51.128;4.566;2022-12-07T08:57:48;13.18;;;7.50;;
10387;SDS011;5240;51.128;4.566;2022-12-07T09:00:17;13.20;;;7.93;;
10387;SDS011;5240;51.128;4.566;2022-12-07T09:02:46;14.35;;;8.23;;
10387;SDS011;5240;51.128;4.566;2022-12-07T09:05:13;10.45;;;7.00;;
10387;SDS011;5240;51.128;4.566;2022-12-07T09:07:43;14.52;;;7.95;;
10387;SDS011;5240;51.128;4.566;2022-12-07T09:10:16;12.20;;;6.90;;
10387;SDS011;5240;51.128;4.566;2022-12-07T09:12:44;14.45;;;7.80;;
10387;SDS011;5240;51.128;4.566;2022-12-07T09:15:11;12.18;;;7.13;;
10387;SDS011;5240;51.128;4.566;2022-12-07T09:17:39;13.70;;;6.43;;
10387;SDS011;5240;51.128;4.566;2022-12-07T09:20:06;16.02;;;6.70;;
10387;SDS011;5240;51.128;4.566;2022-12-07T09:22:33;12.25;;;6.30;;
10387;SDS011;5240;51.128;4.566;2022-12-07T09:25:02;11.77;;;6.43;;
10387;SDS011;5240;51.128;4.566;2022-12-07T09:27:30;11.98;;;6.40;;
10387;SDS011;5240;51.128;4.566;2022-12-07T09:29:57;10.05;;;6.22;;
10387;SDS011;5240;51.128;4.566;2022-12-07T09:32:24;11.88;;;6.65;;
10387;SDS011;5240;51.128;4.566;2022-12-07T09:34:52;10.93;;;6.75;;
10387;SDS011;5240;51.128;4.566;2022-12-07T09:37:19;12.05;;;6.45;;
10387;SDS011;5240;51.128;4.566;2022-12-07T09:39:48;10.48;;;5.70;;
10387;SDS011;5240;51.128;4.566;2022-12-07T09:42:32;13.98;;;6.57;;
10387;SDS011;5240;51.128;4.566;2022-12-07T09:45:02;11.40;;;5.25;;
10387;SDS011;5240;51.128;4.566;2022-12-07T09:47:33;17.13;;;6.05;;
10387;SDS011;5240;51.128;4.566;2022-12-07T09:50:03;12.48;;;5.72;;
10387;SDS011;5240;51.128;4.566;2022-12-07T09:52:33;8.07;;;5.50;;
10387;SDS011;5240;51.128;4.566;2022-12-07T09:55:01;11.27;;;5.63;;
10387;SDS011;5240;51.128;4.566;2022-12-07T09:57:30;15.20;;;5.70;;
10387;SDS011;5240;51.128;4.566;2022-12-07T10:00:03;9.95;;;5.22;;
10387;SDS011;5240;51.128;4.566;2022-12-07T10:02:34;10.43;;;5.93;;
10387;SDS011;5240;51.128;4.566;2022-12-07T10:05:03;10.57;;;5.68;;
10387;SDS011;5240;51.128;4.566;2022-12-07T10:07:32;11.40;;;5.60;;
10387;SDS011;5240;51.128;4.566;2022-12-07T10:10:01;12.18;;;6.72;;
10387;SDS011;5240;51.128;4.566;2022-12-07T10:12:29;10.93;;;6.05;;
10387;SDS011;5240;51.128;4.566;2022-12-07T10:14:59;11.63;;;5.97;;
10387;SDS011;5240;51.128;4.566;2022-12-07T10:17:32;11.20;;;5.90;;
10387;SDS011;5240;51.128;4.566;2022-12-07T10:20:10;11.63;;;5.60;;
10387;SDS011;5240;51.128;4.566;2022-12-07T10:22:55;14.05;;;6.68;;
10387;SDS011;5240;51.128;4.566;2022-12-07T10:25:30;13.25;;;5.82;;
10387;SDS011;5240;51.128;4.566;2022-12-07T10:28:00;11.32;;;5.55;;
10387;SDS011;5240;51.128;4.566;2022-12-07T10:30:47;10.55;;;5.60;;
10387;SDS011;5240;51.128;4.566;2022-12-07T10:33:32;10.13;;;5.30;;
10387;SDS011;5240;51.128;4.566;2022-12-07T10:36:01;10.13;;;5.03;;
10387;SDS011;5240;51.128;4.566;2022-12-07T10:38:45;10.77;;;5.10;;
10387;SDS011;5240;51.128;4.566;2022-12-07T10:41:13;12.90;;;5.60;;
10387;SDS011;5240;51.128;4.566;2022-12-07T10:43:48;8.27;;;4.90;;
10387;SDS011;5240;51.128;4.566;2022-12-07T10:46:25;11.25;;;5.30;;
10387;SDS011;5240;51.128;4.566;2022-12-07T10:49:21;7.38;;;4.45;;
10387;SDS011;5240;51.128;4.566;2022-12-07T10:52:04;6.60;;;3.90;;
10387;SDS011;5240;51.128;4.566;2022-12-07T10:54:41;8.30;;;3.67;;
10387;SDS011;5240;51.128;4.566;2022-12-07T10:57:27;5.88;;;3.88;;
10387;SDS011;5240;51.128;4.566;2022-12-07T11:00:11;9.00;;;3.33;;
10387;SDS011;5240;51.128;4.566;2022-12-07T11:18:57;5.55;;;2.90;;
10387;SDS011;5240;51.128;4.566;2022-12-07T11:21:34;7.95;;;2.75;;
10387;SDS011;5240;51.128;4.566;2022-12-07T11:24:10;6.40;;;2.85;;
10387;SDS011;5240;51.128;4.566;2022-12-07T11:26:46;7.45;;;2.63;;
10387;SDS011;5240;51.128;4.566;2022-12-07T11:29:28;6.07;;;3.13;;
10387;SDS011;5240;51.128;4.566;2022-12-07T11:32:11;8.98;;;3.40;;
10387;SDS011;5240;51.128;4.566;2022-12-07T11:34:47;6.85;;;3.35;;
10387;SDS011;5240;51.128;4.566;2022-12-07T11:37:25;7.78;;;4.10;;
10387;SDS011;5240;51.128;4.566;2022-12-07T11:39:57;7.45;;;3.70;;
10387;SDS011;5240;51.128;4.566;2022-12-07T11:42:29;9.73;;;4.40;;
10387;SDS011;5240;51.128;4.566;2022-12-07T11:45:00;12.07;;;4.47;;
10387;SDS011;5240;51.128;4.566;2022-12-07T11:47:38;13.45;;;4.55;;
10387;SDS011;5240;51.128;4.566;2022-12-07T11:50:16;8.80;;;4.50;;
10387;SDS011;5240;51.128;4.566;2022-12-07T11:52:52;7.75;;;4.68;;
10387;SDS011;5240;51.128;4.566;2022-12-07T11:55:24;10.65;;;4.30;;
10387;SDS011;5240;51.128;4.566;2022-12-07T11:58:00;8.80;;;4.22;;
10387;SDS011;5240;51.128;4.566;2022-12-07T12:00:31;5.32;;;3.75;;
10387;SDS011;5240;51.128;4.566;2022-12-07T12:03:01;9.52;;;4.32;;
10387;SDS011;5240;51.128;4.566;2022-12-07T12:05:32;7.45;;;4.10;;
10387;SDS011;5240;51.128;4.566;2022-12-07T12:08:01;9.55;;;3.78;;
10387;SDS011;5240;51.128;4.566;2022-12-07T12:10:40;12.02;;;3.83;;
10387;SDS011;5240;51.128;4.566;2022-12-07T12:13:21;9.45;;;3.90;;
10387;SDS011;5240;51.128;4.566;2022-12-07T12:16:03;9.48;;;4.10;;
10387;SDS011;5240;51.128;4.566;2022-12-07T12:18:50;10.25;;;3.55;;
10387;SDS011;5240;51.128;4.566;2022-12-07T12:21:29;6.95;;;3.53;;
10387;SDS011;5240;51.128;4.566;2022-12-07T12:23:58;5.53;;;3.20;;
10387;SDS011;5240;51.128;4.566;2022-12-07T12:26:29;9.18;;;3.17;;
10387;SDS011;5240;51.128;4.566;2022-12-07T12:28:58;9.52;;;3.60;;
10387;SDS011;5240;51.128;4.566;2022-12-07T12:31:31;5.65;;;3.15;;
10387;SDS011;5240;51.128;4.566;2022-12-07T12:34:02;7.93;;;2.88;;
10387;SDS011;5240;51.128;4.566;2022-12-07T12:36:51;8.75;;;2.92;;
10387;SDS011;5240;51.128;4.566;2022-12-07T12:39:18;6.38;;;3.10;;
10387;SDS011;5240;51.128;4.566;2022-12-07T12:41:53;5.97;;;2.63;;
10387;SDS011;5240;51.128;4.566;2022-12-07T12:44:40;3.08;;;2.00;;
10387;SDS011;5240;51.128;4.566;2022-12-07T12:47:42;3.33;;;2.20;;
10387;SDS011;5240;51.128;4.566;2022-12-07T12:50:28;5.25;;;2.72;;
10387;SDS011;5240;51.128;4.566;2022-12-07T12:53:13;5.53;;;2.20;;
10387;SDS011;5240;51.128;4.566;2022-12-07T12:56:08;4.38;;;2.10;;
10387;SDS011;5240;51.128;4.566;2022-12-07T12:58:47;4.68;;;2.25;;
10387;SDS011;5240;51.128;4.566;2022-12-07T13:01:36;3.85;;;2.17;;
10387;SDS011;5240;51.128;4.566;2022-12-07T13:10:32;3.72;;;2.03;;
10387;SDS011;5240;51.128;4.566;2022-12-07T13:13:08;3.72;;;2.13;;
10387;SDS011;5240;51.128;4.566;2022-12-07T13:22:40;5.85;;;2.35;;
10387;SDS011;5240;51.128;4.566;2022-12-07T13:25:18;5.47;;;3.10;;
10387;SDS011;5240;51.128;4.566;2022-12-07T13:27:50;9.02;;;3.00;;
10387;SDS011;5240;51.128;4.566;2022-12-07T13:30:23;6.25;;;3.00;;
10387;SDS011;5240;51.128;4.566;2022-12-07T13:32:54;4.97;;;2.90;;
10387;SDS011;5240;51.128;4.566;2022-12-07T13:35:33;4.40;;;2.83;;
10387;SDS011;5240;51.128;4.566;2022-12-07T13:38:03;4.40;;;2.72;;
10387;SDS011;5240;51.128;4.566;2022-12-07T13:40:41;5.97;;;3.08;;
10387;SDS011;5240;51.128;4.566;2022-12-07T13:43:11;7.20;;;3.20;;
10387;SDS011;5240;51.128;4.566;2022-12-07T13:45:42;7.28;;;3.50;;
10387;SDS011;5240;51.128;4.566;2022-12-07T13:48:15;5.78;;;3.75;;
10387;SDS011;5240;51.128;4.566;2022-12-07T13:50:52;8.55;;;4.00;;
10387;SDS011;5240;51.128;4.566;2022-12-07T13:53:20;8.68;;;4.95;;
10387;SDS011;5240;51.128;4.566;2022-12-07T13:55:48;7.45;;;4.10;;
10387;SDS011;5240;51.128;4.566;2022-12-07T13:58:15;6.53;;;4.70;;
10387;SDS011;5240;51.128;4.566;2022-12-07T14:00:44;4.38;;;3.97;;
10387;SDS011;5240;51.128;4.566;2022-12-07T14:03:28;6.10;;;4.65;;
10387;SDS011;5240;51.128;4.566;2022-12-07T14:06:04;6.65;;;4.20;;
10387;SDS011;5240;51.128;4.566;2022-12-07T14:08:38;7.05;;;4.15;;
10387;SDS011;5240;51.128;4.566;2022-12-07T14:11:05;6.18;;;4.68;;
10387;SDS011;5240;51.128;4.566;2022-12-07T14:13:40;6.72;;;4.70;;
10387;SDS011;5240;51.128;4.566;2022-12-07T14:16:23;7.30;;;4.50;;
10387;SDS011;5240;51.128;4.566;2022-12-07T14:18:53;6.07;;;4.18;;
10387;SDS011;5240;51.128;4.566;2022-12-07T14:21:22;47.40;;;29.08;;
10387;SDS011;5240;51.128;4.566;2022-12-07T14:24:04;6.28;;;3.88;;
10387;SDS011;5240;51.128;4.566;2022-12-07T14:26:40;5.50;;;2.65;;
10387;SDS011;5240;51.128;4.566;2022-12-07T14:29:28;5.47;;;3.58;;
10387;SDS011;5240;51.128;4.566;2022-12-07T14:32:01;7.03;;;2.92;;
10387;SDS011;5240;51.128;4.566;2022-12-07T14:34:55;4.38;;;2.65;;
10387;SDS011;5240;51.128;4.566;2022-12-07T14:37:27;3.75;;;2.75;;
10387;SDS011;5240;51.128;4.566;2022-12-07T14:39:55;4.10;;;2.50;;
10387;SDS011;5240;51.128;4.566;2022-12-07T14:42:23;4.13;;;2.10;;
10387;SDS011;5240;51.128;4.566;2022-12-07T14:44:53;3.50;;;2.30;;
10387;SDS011;5240;51.128;4.566;2022-12-07T14:47:21;4.80;;;3.05;;
10387;SDS011;5240;51.128;4.566;2022-12-07T14:49:49;5.78;;;2.95;;
10387;SDS011;5240;51.128;4.566;2022-12-07T14:52:17;7.28;;;2.55;;
10387;SDS011;5240;51.128;4.566;2022-12-07T14:54:45;4.18;;;2.20;;
10387;SDS011;5240;51.128;4.566;2022-12-07T14:57:12;3.33;;;2.10;;
10387;SDS011;5240;51.128;4.566;2022-12-07T14:59:39;3.72;;;1.98;;
10387;SDS011;5240;51.128;4.566;2022-12-07T15:02:08;2.38;;;1.63;;
10387;SDS011;5240;51.128;4.566;2022-12-07T15:04:38;4.57;;;2.40;;
10387;SDS011;5240;51.128;4.566;2022-12-07T15:07:06;4.32;;;2.08;;
10387;SDS011;5240;51.128;4.566;2022-12-07T15:09:38;4.85;;;2.28;;
10387;SDS011;5240;51.128;4.566;2022-12-07T15:12:05;5.00;;;2.00;;
10387;SDS011;5240;51.128;4.566;2022-12-07T15:14:33;7.38;;;2.20;;
10387;SDS011;5240;51.128;4.566;2022-12-07T15:17:00;4.60;;;2.50;;
10387;SDS011;5240;51.128;4.566;2022-12-07T15:19:27;4.38;;;2.47;;
10387;SDS011;5240;51.128;4.566;2022-12-07T15:21:55;4.82;;;2.25;;
10387;SDS011;5240;51.128;4.566;2022-12-07T15:24:23;5.53;;;2.60;;
10387;SDS011;5240;51.128;4.566;2022-12-07T15:26:50;5.13;;;2.33;;
10387;SDS011;5240;51.128;4.566;2022-12-07T15:29:17;5.28;;;2.30;;
10387;SDS011;5240;51.128;4.566;2022-12-07T15:31:44;6.35;;;2.55;;
10387;SDS011;5240;51.128;4.566;2022-12-07T15:34:12;6.00;;;2.60;;
10387;SDS011;5240;51.128;4.566;2022-12-07T15:36:39;4.97;;;2.50;;